sensor_id;sensor_type;location;lat;lon;timestamp;temperature;humidity
36384;DHT22;22418;51.210;6.976;2024-01-10T00:02:04;-2.40;99.90
36384;DHT22;22418;51.210;6.976;2024-01-10T00:04:35;-2.40;99.90
36384;DHT22;22418;51.210;6.976;2024-01-10T00:07:06;-2.50;99.90
36384;DHT22;22418;51.210;6.976;2024-01-10T00:09:36;-2.60;99.90
36384;DHT22;22418;51.210;6.976;2024-01-10T00:12:07;-2.40;99.90
36384;DHT22;22418;51.210;6.976;2024-01-10T00:14:37;-2.40;99.90
36384;DHT22;22418;51.210;6.976;2024-01-10T00:17:08;-2.50;99.90
36384;DHT22;22418;51.210;6.976;2024-01-10T00:19:38;-2.40;99.90
36384;DHT22;22418;51.210;6.976;2024-01-10T00:22:09;-2.40;99.90
36384;DHT22;22418;51.210;6.976;2024-01-10T00:24:39;-2.50;99.90
36384;DHT22;22418;51.210;6.976;2024-01-10T00:27:10;-2.60;99.90
36384;DHT22;22418;51.210;6.976;2024-01-10T00:29:41;-2.60;99.90
36384;DHT22;22418;51.210;6.976;2024-01-10T00:32:11;-2.70;99.90
36384;DHT22;22418;51.210;6.976;2024-01-10T00:34:42;-2.40;99.90
36384;DHT22;22418;51.210;6.976;2024-01-10T00:37:12;-2.40;99.90
36384;DHT22;22418;51.210;6.976;2024-01-10T00:39:43;-2.30;99.90
36384;DHT22;22418;51.210;6.976;2024-01-10T00:42:13;-2.50;99.90
36384;DHT22;22418;51.210;6.976;2024-01-10T00:44:44;-2.60;99.90
36384;DHT22;22418;51.210;6.976;2024-01-10T00:47:14;-2.60;99.90
36384;DHT22;22418;51.210;6.976;2024-01-10T00:49:45;-2.70;99.90
36384;DHT22;22418;51.210;6.976;2024-01-10T00:52:15;-2.70;99.90
36384;DHT22;22418;51.210;6.976;2024-01-10T00:54:46;-2.70;99.90
36384;DHT22;22418;51.210;6.976;2024-01-10T00:57:17;-2.60;99.90
36384;DHT22;22418;51.210;6.976;2024-01-10T00:59:47;-2.60;99.90
36384;DHT22;22418;51.210;6.976;2024-01-10T01:02:18;-2.40;99.90
36384;DHT22;22418;51.210;6.976;2024-01-10T01:04:48;-2.80;99.90
36384;DHT22;22418;51.210;6.976;2024-01-10T01:07:19;-2.80;99.90
36384;DHT22;22418;51.210;6.976;2024-01-10T01:09:49;-2.80;99.90
36384;DHT22;22418;51.210;6.976;2024-01-10T01:12:20;-2.60;99.90
36384;DHT22;22418;51.210;6.976;2024-01-10T01:14:50;-2.70;99.90
36384;DHT22;22418;51.210;6.976;2024-01-10T01:17:21;-2.70;99.90
36384;DHT22;22418;51.210;6.976;2024-01-10T01:19:52;-2.70;99.90
36384;DHT22;22418;51.210;6.976;2024-01-10T01:22:22;-2.70;99.90
36384;DHT22;22418;51.210;6.976;2024-01-10T01:24:53;-2.70;99.90
36384;DHT22;22418;51.210;6.976;2024-01-10T01:27:23;-2.80;99.90
36384;DHT22;22418;51.210;6.976;2024-01-10T01:29:54;-2.80;99.90
36384;DHT22;22418;51.210;6.976;2024-01-10T01:32:24;-2.70;99.90
36384;DHT22;22418;51.210;6.976;2024-01-10T01:34:55;-2.90;99.90
36384;DHT22;22418;51.210;6.976;2024-01-10T01:37:25;-2.70;99.90
36384;DHT22;22418;51.210;6.976;2024-01-10T01:39:56;-2.60;99.90
36384;DHT22;22418;51.210;6.976;2024-01-10T01:42:27;-2.60;99.90
36384;DHT22;22418;51.210;6.976;2024-01-10T01:44:57;-2.40;99.90
36384;DHT22;22418;51.210;6.976;2024-01-10T01:47:28;-2.70;99.90
36384;DHT22;22418;51.210;6.976;2024-01-10T01:49:58;-2.80;99.90
36384;DHT22;22418;51.210;6.976;2024-01-10T01:52:30;-2.60;99.90
36384;DHT22;22418;51.210;6.976;2024-01-10T01:55:01;-2.70;99.90
36384;DHT22;22418;51.210;6.976;2024-01-10T01:57:32;-2.70;99.90
36384;DHT22;22418;51.210;6.976;2024-01-10T02:00:03;-2.70;99.90
36384;DHT22;22418;51.210;6.976;2024-01-10T02:02:35;-2.80;99.90
36384;DHT22;22418;51.210;6.976;2024-01-10T02:05:07;-2.70;99.90
36384;DHT22;22418;51.210;6.976;2024-01-10T02:07:37;-2.70;99.90
36384;DHT22;22418;51.210;6.976;2024-01-10T02:10:08;-2.60;99.90
36384;DHT22;22418;51.210;6.976;2024-01-10T02:12:38;-2.70;99.90
36384;DHT22;22418;51.210;6.976;2024-01-10T02:15:09;-2.60;99.90
36384;DHT22;22418;51.210;6.976;2024-01-10T02:17:40;-2.70;99.90
36384;DHT22;22418;51.210;6.976;2024-01-10T02:20:15;-2.80;99.90
36384;DHT22;22418;51.210;6.976;2024-01-10T02:22:48;-2.50;99.90
36384;DHT22;22418;51.210;6.976;2024-01-10T02:25:20;-2.50;99.90
36384;DHT22;22418;51.210;6.976;2024-01-10T02:27:51;-2.50;99.90
36384;DHT22;22418;51.210;6.976;2024-01-10T02:30:22;-2.70;99.90
36384;DHT22;22418;51.210;6.976;2024-01-10T02:32:52;-2.60;99.90
36384;DHT22;22418;51.210;6.976;2024-01-10T02:35:23;-2.60;99.90
36384;DHT22;22418;51.210;6.976;2024-01-10T02:37:54;-2.60;99.90
36384;DHT22;22418;51.210;6.976;2024-01-10T02:40:25;-2.50;99.90
36384;DHT22;22418;51.210;6.976;2024-01-10T02:42:55;-2.40;99.90
36384;DHT22;22418;51.210;6.976;2024-01-10T02:45:26;-2.50;99.90
36384;DHT22;22418;51.210;6.976;2024-01-10T02:47:56;-2.50;99.90
36384;DHT22;22418;51.210;6.976;2024-01-10T02:50:27;-2.70;99.90
36384;DHT22;22418;51.210;6.976;2024-01-10T02:52:57;-2.60;99.90
36384;DHT22;22418;51.210;6.976;2024-01-10T02:55:28;-2.80;99.90
36384;DHT22;22418;51.210;6.976;2024-01-10T02:57:58;-2.70;99.90
36384;DHT22;22418;51.210;6.976;2024-01-10T03:00:29;-2.90;99.90
36384;DHT22;22418;51.210;6.976;2024-01-10T03:02:59;-2.70;99.90
36384;DHT22;22418;51.210;6.976;2024-01-10T03:05:30;-2.80;99.90
36384;DHT22;22418;51.210;6.976;2024-01-10T03:08:00;-2.90;99.90
36384;DHT22;22418;51.210;6.976;2024-01-10T03:10:32;-2.80;99.90
36384;DHT22;22418;51.210;6.976;2024-01-10T03:13:03;-2.60;99.90
36384;DHT22;22418;51.210;6.976;2024-01-10T03:15:33;-2.50;99.90
36384;DHT22;22418;51.210;6.976;2024-01-10T03:18:04;-2.50;99.90
36384;DHT22;22418;51.210;6.976;2024-01-10T03:20:35;-2.50;99.90
36384;DHT22;22418;51.210;6.976;2024-01-10T03:23:05;-2.60;99.90
36384;DHT22;22418;51.210;6.976;2024-01-10T03:25:36;-2.60;99.90
36384;DHT22;22418;51.210;6.976;2024-01-10T03:28:06;-2.70;99.90
36384;DHT22;22418;51.210;6.976;2024-01-10T03:30:37;-2.90;99.90
36384;DHT22;22418;51.210;6.976;2024-01-10T03:33:08;-2.90;99.90
36384;DHT22;22418;51.210;6.976;2024-01-10T03:35:38;-2.90;99.90
36384;DHT22;22418;51.210;6.976;2024-01-10T03:38:09;-2.80;99.90
36384;DHT22;22418;51.210;6.976;2024-01-10T03:40:39;-2.90;99.90
36384;DHT22;22418;51.210;6.976;2024-01-10T03:43:10;-2.90;99.90
36384;DHT22;22418;51.210;6.976;2024-01-10T03:45:42;-2.90;99.90
36384;DHT22;22418;51.210;6.976;2024-01-10T03:48:13;-3.20;99.90
36384;DHT22;22418;51.210;6.976;2024-01-10T03:50:43;-3.00;99.90
36384;DHT22;22418;51.210;6.976;2024-01-10T03:53:14;-2.90;99.90
36384;DHT22;22418;51.210;6.976;2024-01-10T03:55:44;-3.00;99.90
36384;DHT22;22418;51.210;6.976;2024-01-10T03:58:15;-3.10;99.90
36384;DHT22;22418;51.210;6.976;2024-01-10T04:00:45;-3.00;99.90
36384;DHT22;22418;51.210;6.976;2024-01-10T04:03:16;-3.10;99.90
36384;DHT22;22418;51.210;6.976;2024-01-10T04:05:47;-2.90;99.90
36384;DHT22;22418;51.210;6.976;2024-01-10T04:08:17;-3.00;99.90
36384;DHT22;22418;51.210;6.976;2024-01-10T04:10:48;-3.10;99.90
36384;DHT22;22418;51.210;6.976;2024-01-10T04:13:18;-3.20;99.90
36384;DHT22;22418;51.210;6.976;2024-01-10T04:15:49;-3.20;99.90
36384;DHT22;22418;51.210;6.976;2024-01-10T04:18:19;-2.90;99.90
36384;DHT22;22418;51.210;6.976;2024-01-10T04:20:50;-3.10;99.90
36384;DHT22;22418;51.210;6.976;2024-01-10T04:23:20;-3.00;99.90
36384;DHT22;22418;51.210;6.976;2024-01-10T04:25:51;-2.90;99.90
36384;DHT22;22418;51.210;6.976;2024-01-10T04:28:22;-3.00;99.90
36384;DHT22;22418;51.210;6.976;2024-01-10T04:30:52;-3.30;99.90
36384;DHT22;22418;51.210;6.976;2024-01-10T04:33:23;-3.20;99.90
36384;DHT22;22418;51.210;6.976;2024-01-10T04:35:53;-2.80;99.90
36384;DHT22;22418;51.210;6.976;2024-01-10T04:38:24;-2.80;99.90
36384;DHT22;22418;51.210;6.976;2024-01-10T04:40:56;-2.90;99.90
36384;DHT22;22418;51.210;6.976;2024-01-10T04:43:27;-2.90;99.90
36384;DHT22;22418;51.210;6.976;2024-01-10T04:45:57;-2.90;99.90
36384;DHT22;22418;51.210;6.976;2024-01-10T04:48:28;-3.10;99.90
36384;DHT22;22418;51.210;6.976;2024-01-10T04:50:58;-3.10;99.90
36384;DHT22;22418;51.210;6.976;2024-01-10T04:53:29;-3.10;99.90
36384;DHT22;22418;51.210;6.976;2024-01-10T04:56:00;-3.00;99.90
36384;DHT22;22418;51.210;6.976;2024-01-10T04:58:30;-2.70;99.90
36384;DHT22;22418;51.210;6.976;2024-01-10T05:01:03;-2.90;99.90
36384;DHT22;22418;51.210;6.976;2024-01-10T05:03:33;-2.90;99.90
36384;DHT22;22418;51.210;6.976;2024-01-10T05:06:04;-3.20;99.90
36384;DHT22;22418;51.210;6.976;2024-01-10T05:08:35;-3.30;99.90
36384;DHT22;22418;51.210;6.976;2024-01-10T05:11:05;-3.40;99.90
36384;DHT22;22418;51.210;6.976;2024-01-10T05:13:36;-3.50;99.90
36384;DHT22;22418;51.210;6.976;2024-01-10T05:16:07;-3.40;99.90
36384;DHT22;22418;51.210;6.976;2024-01-10T05:18:37;-3.20;99.90
36384;DHT22;22418;51.210;6.976;2024-01-10T05:21:08;-3.50;99.90
36384;DHT22;22418;51.210;6.976;2024-01-10T05:23:38;-3.40;99.90
36384;DHT22;22418;51.210;6.976;2024-01-10T05:26:10;-3.20;99.90
36384;DHT22;22418;51.210;6.976;2024-01-10T05:28:41;-3.20;99.90
36384;DHT22;22418;51.210;6.976;2024-01-10T05:31:11;-3.20;99.90
36384;DHT22;22418;51.210;6.976;2024-01-10T05:33:42;-3.00;99.90
36384;DHT22;22418;51.210;6.976;2024-01-10T05:36:12;-2.70;99.90
36384;DHT22;22418;51.210;6.976;2024-01-10T05:38:43;-2.90;99.90
36384;DHT22;22418;51.210;6.976;2024-01-10T05:41:13;-2.90;99.90
36384;DHT22;22418;51.210;6.976;2024-01-10T05:43:44;-3.10;99.90
36384;DHT22;22418;51.210;6.976;2024-01-10T05:46:15;-2.80;99.90
36384;DHT22;22418;51.210;6.976;2024-01-10T05:48:46;-2.90;99.90
36384;DHT22;22418;51.210;6.976;2024-01-10T05:51:18;-2.90;99.90
36384;DHT22;22418;51.210;6.976;2024-01-10T05:53:48;-3.00;99.90
36384;DHT22;22418;51.210;6.976;2024-01-10T05:56:19;-3.20;99.90
36384;DHT22;22418;51.210;6.976;2024-01-10T05:58:49;-3.10;99.90
36384;DHT22;22418;51.210;6.976;2024-01-10T06:01:20;-2.90;99.90
36384;DHT22;22418;51.210;6.976;2024-01-10T06:03:51;-2.90;99.90
36384;DHT22;22418;51.210;6.976;2024-01-10T06:06:22;-3.00;99.90
36384;DHT22;22418;51.210;6.976;2024-01-10T06:08:52;-3.40;99.90
36384;DHT22;22418;51.210;6.976;2024-01-10T06:11:23;-3.50;99.90
36384;DHT22;22418;51.210;6.976;2024-01-10T06:13:53;-3.40;99.90
36384;DHT22;22418;51.210;6.976;2024-01-10T06:16:24;-3.50;99.90
36384;DHT22;22418;51.210;6.976;2024-01-10T06:18:54;-3.50;99.90
36384;DHT22;22418;51.210;6.976;2024-01-10T06:21:25;-3.20;99.90
36384;DHT22;22418;51.210;6.976;2024-01-10T06:23:55;-2.90;99.90
36384;DHT22;22418;51.210;6.976;2024-01-10T06:26:26;-2.80;99.90
36384;DHT22;22418;51.210;6.976;2024-01-10T06:28:57;-2.70;99.90
36384;DHT22;22418;51.210;6.976;2024-01-10T06:31:28;-2.90;99.90
36384;DHT22;22418;51.210;6.976;2024-01-10T06:33:58;-3.10;99.90
36384;DHT22;22418;51.210;6.976;2024-01-10T06:36:29;-3.00;99.90
36384;DHT22;22418;51.210;6.976;2024-01-10T06:39:00;-3.00;99.90
36384;DHT22;22418;51.210;6.976;2024-01-10T06:41:30;-2.90;99.90
36384;DHT22;22418;51.210;6.976;2024-01-10T06:44:02;-2.80;99.90
36384;DHT22;22418;51.210;6.976;2024-01-10T06:46:34;-2.90;99.90
36384;DHT22;22418;51.210;6.976;2024-01-10T06:49:05;-3.10;99.90
36384;DHT22;22418;51.210;6.976;2024-01-10T06:51:37;-3.10;99.90
36384;DHT22;22418;51.210;6.976;2024-01-10T06:54:08;-3.20;99.90
36384;DHT22;22418;51.210;6.976;2024-01-10T06:56:39;-3.10;99.90
36384;DHT22;22418;51.210;6.976;2024-01-10T06:59:09;-3.30;99.90
36384;DHT22;22418;51.210;6.976;2024-01-10T07:01:40;-3.20;99.90
36384;DHT22;22418;51.210;6.976;2024-01-10T07:04:11;-3.10;99.90
36384;DHT22;22418;51.210;6.976;2024-01-10T07:06:41;-3.30;99.90
36384;DHT22;22418;51.210;6.976;2024-01-10T07:09:12;-3.20;99.90
36384;DHT22;22418;51.210;6.976;2024-01-10T07:11:43;-3.00;99.90
36384;DHT22;22418;51.210;6.976;2024-01-10T07:14:17;-3.00;99.90
36384;DHT22;22418;51.210;6.976;2024-01-10T07:16:47;-3.00;99.90
36384;DHT22;22418;51.210;6.976;2024-01-10T07:19:21;-3.10;99.90
36384;DHT22;22418;51.210;6.976;2024-01-10T07:21:53;-3.00;99.90
36384;DHT22;22418;51.210;6.976;2024-01-10T07:24:25;-3.00;99.90
36384;DHT22;22418;51.210;6.976;2024-01-10T07:26:56;-3.00;99.90
36384;DHT22;22418;51.210;6.976;2024-01-10T07:29:27;-3.00;99.90
36384;DHT22;22418;51.210;6.976;2024-01-10T07:31:58;-2.90;99.90
36384;DHT22;22418;51.210;6.976;2024-01-10T07:34:28;-3.00;99.90
36384;DHT22;22418;51.210;6.976;2024-01-10T07:36:59;-3.00;99.90
36384;DHT22;22418;51.210;6.976;2024-01-10T07:39:29;-3.00;99.90
36384;DHT22;22418;51.210;6.976;2024-01-10T07:42:00;-3.00;99.90
36384;DHT22;22418;51.210;6.976;2024-01-10T07:44:32;-3.00;99.90
36384;DHT22;22418;51.210;6.976;2024-01-10T07:47:03;-3.00;99.90
36384;DHT22;22418;51.210;6.976;2024-01-10T07:49:34;-3.10;99.90
36384;DHT22;22418;51.210;6.976;2024-01-10T07:52:05;-3.00;99.90
36384;DHT22;22418;51.210;6.976;2024-01-10T07:54:36;-2.90;99.90
36384;DHT22;22418;51.210;6.976;2024-01-10T07:57:06;-2.90;99.90
36384;DHT22;22418;51.210;6.976;2024-01-10T07:59:37;-2.90;99.90
36384;DHT22;22418;51.210;6.976;2024-01-10T08:02:07;-2.90;99.90
36384;DHT22;22418;51.210;6.976;2024-01-10T08:04:40;-2.90;99.90
36384;DHT22;22418;51.210;6.976;2024-01-10T08:07:11;-2.90;99.90
36384;DHT22;22418;51.210;6.976;2024-01-10T08:09:42;-2.80;99.90
36384;DHT22;22418;51.210;6.976;2024-01-10T08:12:12;-3.00;99.90
36384;DHT22;22418;51.210;6.976;2024-01-10T08:14:44;-3.00;99.90
36384;DHT22;22418;51.210;6.976;2024-01-10T08:17:16;-2.90;99.90
36384;DHT22;22418;51.210;6.976;2024-01-10T08:19:46;-2.90;99.90
36384;DHT22;22418;51.210;6.976;2024-01-10T08:22:17;-3.00;99.90
36384;DHT22;22418;51.210;6.976;2024-01-10T08:24:47;-3.10;99.90
36384;DHT22;22418;51.210;6.976;2024-01-10T08:27:18;-2.70;99.90
36384;DHT22;22418;51.210;6.976;2024-01-10T08:29:49;-2.70;99.90
36384;DHT22;22418;51.210;6.976;2024-01-10T08:32:19;-2.70;99.90
36384;DHT22;22418;51.210;6.976;2024-01-10T08:34:52;-2.90;99.90
36384;DHT22;22418;51.210;6.976;2024-01-10T08:37:22;-2.70;99.90
36384;DHT22;22418;51.210;6.976;2024-01-10T08:39:53;-2.50;99.90
36384;DHT22;22418;51.210;6.976;2024-01-10T08:42:23;-2.50;99.90
36384;DHT22;22418;51.210;6.976;2024-01-10T08:44:54;-2.50;99.90
36384;DHT22;22418;51.210;6.976;2024-01-10T08:47:26;-2.40;99.90
36384;DHT22;22418;51.210;6.976;2024-01-10T08:49:56;-2.30;99.90
36384;DHT22;22418;51.210;6.976;2024-01-10T08:52:27;-2.30;99.90
36384;DHT22;22418;51.210;6.976;2024-01-10T08:54:58;-2.30;99.90
36384;DHT22;22418;51.210;6.976;2024-01-10T08:57:28;-2.10;99.90
36384;DHT22;22418;51.210;6.976;2024-01-10T09:00:00;-2.40;99.90
36384;DHT22;22418;51.210;6.976;2024-01-10T09:02:30;-2.20;99.90
36384;DHT22;22418;51.210;6.976;2024-01-10T09:05:01;-2.10;99.90
36384;DHT22;22418;51.210;6.976;2024-01-10T09:07:31;-1.90;99.90
36384;DHT22;22418;51.210;6.976;2024-01-10T09:10:04;-1.90;99.90
36384;DHT22;22418;51.210;6.976;2024-01-10T09:12:35;-1.70;99.90
36384;DHT22;22418;51.210;6.976;2024-01-10T09:15:06;-1.70;99.90
36384;DHT22;22418;51.210;6.976;2024-01-10T09:17:38;-1.80;99.90
36384;DHT22;22418;51.210;6.976;2024-01-10T09:20:10;-1.80;99.90
36384;DHT22;22418;51.210;6.976;2024-01-10T09:22:40;-1.60;99.90
36384;DHT22;22418;51.210;6.976;2024-01-10T09:25:11;-1.40;99.90
36384;DHT22;22418;51.210;6.976;2024-01-10T09:27:42;-1.10;99.90
36384;DHT22;22418;51.210;6.976;2024-01-10T09:30:15;-1.30;99.90
36384;DHT22;22418;51.210;6.976;2024-01-10T09:32:47;-1.30;99.90
36384;DHT22;22418;51.210;6.976;2024-01-10T09:35:17;-1.10;99.90
36384;DHT22;22418;51.210;6.976;2024-01-10T09:37:48;-1.20;99.90
36384;DHT22;22418;51.210;6.976;2024-01-10T09:40:20;-1.10;99.90
36384;DHT22;22418;51.210;6.976;2024-01-10T09:42:57;-1.10;99.90
36384;DHT22;22418;51.210;6.976;2024-01-10T09:45:28;-0.90;99.90
36384;DHT22;22418;51.210;6.976;2024-01-10T09:48:01;-1.00;99.90
36384;DHT22;22418;51.210;6.976;2024-01-10T09:50:32;-1.00;99.90
36384;DHT22;22418;51.210;6.976;2024-01-10T09:53:06;-1.10;99.90
36384;DHT22;22418;51.210;6.976;2024-01-10T09:55:39;-1.00;99.90
36384;DHT22;22418;51.210;6.976;2024-01-10T09:58:10;-0.80;99.90
36384;DHT22;22418;51.210;6.976;2024-01-10T10:00:41;-0.70;99.90
36384;DHT22;22418;51.210;6.976;2024-01-10T10:03:11;-0.50;99.90
36384;DHT22;22418;51.210;6.976;2024-01-10T10:05:44;-0.40;99.90
36384;DHT22;22418;51.210;6.976;2024-01-10T10:08:14;-0.40;99.90
36384;DHT22;22418;51.210;6.976;2024-01-10T10:10:45;-0.20;99.90
36384;DHT22;22418;51.210;6.976;2024-01-10T10:13:29;-0.10;99.90
36384;DHT22;22418;51.210;6.976;2024-01-10T10:16:01;-0.20;99.90
36384;DHT22;22418;51.210;6.976;2024-01-10T10:18:32;0.00;99.90
36384;DHT22;22418;51.210;6.976;2024-01-10T10:21:10;0.00;99.90
36384;DHT22;22418;51.210;6.976;2024-01-10T10:23:43;0.00;99.90
36384;DHT22;22418;51.210;6.976;2024-01-10T10:26:15;0.10;99.90
36384;DHT22;22418;51.210;6.976;2024-01-10T10:28:51;0.00;99.90
36384;DHT22;22418;51.210;6.976;2024-01-10T10:31:23;0.10;99.90
36384;DHT22;22418;51.210;6.976;2024-01-10T10:33:54;0.20;99.90
36384;DHT22;22418;51.210;6.976;2024-01-10T10:36:25;0.30;99.90
36384;DHT22;22418;51.210;6.976;2024-01-10T10:38:55;0.50;99.90
36384;DHT22;22418;51.210;6.976;2024-01-10T10:41:27;0.50;99.90
36384;DHT22;22418;51.210;6.976;2024-01-10T10:44:00;0.60;99.90
36384;DHT22;22418;51.210;6.976;2024-01-10T10:46:33;0.70;99.90
36384;DHT22;22418;51.210;6.976;2024-01-10T10:49:11;0.80;99.90
36384;DHT22;22418;51.210;6.976;2024-01-10T10:51:42;0.90;99.90
36384;DHT22;22418;51.210;6.976;2024-01-10T10:54:15;0.90;99.90
36384;DHT22;22418;51.210;6.976;2024-01-10T10:56:46;1.00;99.90
36384;DHT22;22418;51.210;6.976;2024-01-10T10:59:19;1.00;99.90
36384;DHT22;22418;51.210;6.976;2024-01-10T11:01:51;1.00;99.90
36384;DHT22;22418;51.210;6.976;2024-01-10T11:04:22;1.10;99.90
36384;DHT22;22418;51.210;6.976;2024-01-10T11:06:53;1.10;99.90
36384;DHT22;22418;51.210;6.976;2024-01-10T11:09:24;1.20;99.90
36384;DHT22;22418;51.210;6.976;2024-01-10T11:21:00;1.40;99.90
36384;DHT22;22418;51.210;6.976;2024-01-10T11:23:41;1.50;99.90
36384;DHT22;22418;51.210;6.976;2024-01-10T11:26:15;1.50;99.90
36384;DHT22;22418;51.210;6.976;2024-01-10T11:28:46;1.50;99.90
36384;DHT22;22418;51.210;6.976;2024-01-10T11:31:28;1.60;99.80
36384;DHT22;22418;51.210;6.976;2024-01-10T11:34:02;1.60;99.90
36384;DHT22;22418;51.210;6.976;2024-01-10T11:36:36;1.60;99.80
36384;DHT22;22418;51.210;6.976;2024-01-10T11:39:06;1.70;99.80
36384;DHT22;22418;51.210;6.976;2024-01-10T11:41:38;1.70;99.50
36384;DHT22;22418;51.210;6.976;2024-01-10T11:46:46;1.70;99.10
36384;DHT22;22418;51.210;6.976;2024-01-10T11:49:18;1.80;99.00
36384;DHT22;22418;51.210;6.976;2024-01-10T11:51:52;1.80;98.70
36384;DHT22;22418;51.210;6.976;2024-01-10T11:57:27;1.90;98.80
36384;DHT22;22418;51.210;6.976;2024-01-10T11:59:58;1.90;98.50
36384;DHT22;22418;51.210;6.976;2024-01-10T12:02:35;1.80;98.20
36384;DHT22;22418;51.210;6.976;2024-01-10T12:05:07;1.80;98.30
36384;DHT22;22418;51.210;6.976;2024-01-10T12:07:40;1.80;98.40
36384;DHT22;22418;51.210;6.976;2024-01-10T12:10:10;1.80;98.60
36384;DHT22;22418;51.210;6.976;2024-01-10T12:12:41;1.80;98.40
36384;DHT22;22418;51.210;6.976;2024-01-10T12:15:11;1.80;98.60
36384;DHT22;22418;51.210;6.976;2024-01-10T12:17:42;1.70;98.70
36384;DHT22;22418;51.210;6.976;2024-01-10T12:20:13;1.70;98.90
36384;DHT22;22418;51.210;6.976;2024-01-10T12:22:44;1.70;98.90
36384;DHT22;22418;51.210;6.976;2024-01-10T12:25:15;1.70;99.00
36384;DHT22;22418;51.210;6.976;2024-01-10T12:27:46;1.60;98.90
36384;DHT22;22418;51.210;6.976;2024-01-10T12:30:16;1.60;98.80
36384;DHT22;22418;51.210;6.976;2024-01-10T12:32:50;1.60;98.90
36384;DHT22;22418;51.210;6.976;2024-01-10T12:35:23;1.50;99.10
36384;DHT22;22418;51.210;6.976;2024-01-10T12:37:56;1.50;99.30
36384;DHT22;22418;51.210;6.976;2024-01-10T12:40:27;1.50;99.40
36384;DHT22;22418;51.210;6.976;2024-01-10T12:43:04;1.50;99.20
36384;DHT22;22418;51.210;6.976;2024-01-10T12:45:35;1.50;99.30
36384;DHT22;22418;51.210;6.976;2024-01-10T12:48:06;1.40;99.50
36384;DHT22;22418;51.210;6.976;2024-01-10T12:50:38;1.40;99.60
36384;DHT22;22418;51.210;6.976;2024-01-10T12:53:09;1.40;99.70
36384;DHT22;22418;51.210;6.976;2024-01-10T12:55:40;1.40;99.60
36384;DHT22;22418;51.210;6.976;2024-01-10T12:58:11;1.40;99.40
36384;DHT22;22418;51.210;6.976;2024-01-10T13:00:41;1.40;99.40
36384;DHT22;22418;51.210;6.976;2024-01-10T13:03:12;1.40;99.40
36384;DHT22;22418;51.210;6.976;2024-01-10T13:05:43;1.40;99.30
36384;DHT22;22418;51.210;6.976;2024-01-10T13:08:14;1.40;99.50
36384;DHT22;22418;51.210;6.976;2024-01-10T13:10:48;1.50;99.70
36384;DHT22;22418;51.210;6.976;2024-01-10T13:13:19;1.50;99.70
36384;DHT22;22418;51.210;6.976;2024-01-10T13:15:52;1.50;99.70
36384;DHT22;22418;51.210;6.976;2024-01-10T13:18:22;1.50;99.90
36384;DHT22;22418;51.210;6.976;2024-01-10T13:20:53;1.60;99.90
36384;DHT22;22418;51.210;6.976;2024-01-10T13:23:23;1.60;99.90
36384;DHT22;22418;51.210;6.976;2024-01-10T13:25:54;1.70;99.90
36384;DHT22;22418;51.210;6.976;2024-01-10T13:28:25;1.70;99.90
36384;DHT22;22418;51.210;6.976;2024-01-10T13:30:55;1.70;99.90
36384;DHT22;22418;51.210;6.976;2024-01-10T13:33:26;1.80;99.90
36384;DHT22;22418;51.210;6.976;2024-01-10T13:35:57;2.00;99.90
36384;DHT22;22418;51.210;6.976;2024-01-10T13:38:27;2.00;99.90
36384;DHT22;22418;51.210;6.976;2024-01-10T13:40:58;1.90;99.30
36384;DHT22;22418;51.210;6.976;2024-01-10T13:43:29;2.00;99.30
36384;DHT22;22418;51.210;6.976;2024-01-10T13:45:59;2.00;99.20
36384;DHT22;22418;51.210;6.976;2024-01-10T13:48:31;2.00;99.40
36384;DHT22;22418;51.210;6.976;2024-01-10T13:51:02;2.00;99.70
36384;DHT22;22418;51.210;6.976;2024-01-10T13:53:32;2.00;99.60
36384;DHT22;22418;51.210;6.976;2024-01-10T13:56:03;2.00;99.40
36384;DHT22;22418;51.210;6.976;2024-01-10T13:58:34;2.10;99.40
36384;DHT22;22418;51.210;6.976;2024-01-10T14:01:04;2.10;99.50
36384;DHT22;22418;51.210;6.976;2024-01-10T14:03:35;2.20;99.80
36384;DHT22;22418;51.210;6.976;2024-01-10T14:06:06;2.10;99.30
36384;DHT22;22418;51.210;6.976;2024-01-10T14:08:37;2.10;99.00
36384;DHT22;22418;51.210;6.976;2024-01-10T14:11:08;2.10;99.30
36384;DHT22;22418;51.210;6.976;2024-01-10T14:13:39;2.30;99.10
36384;DHT22;22418;51.210;6.976;2024-01-10T14:16:10;2.20;99.10
36384;DHT22;22418;51.210;6.976;2024-01-10T14:18:41;2.20;99.50
36384;DHT22;22418;51.210;6.976;2024-01-10T14:21:11;2.20;99.80
36384;DHT22;22418;51.210;6.976;2024-01-10T14:23:42;2.20;99.80
36384;DHT22;22418;51.210;6.976;2024-01-10T14:26:15;2.20;99.80
36384;DHT22;22418;51.210;6.976;2024-01-10T14:28:45;2.30;99.80
36384;DHT22;22418;51.210;6.976;2024-01-10T14:31:16;2.20;99.80
36384;DHT22;22418;51.210;6.976;2024-01-10T14:33:47;2.30;99.90
36384;DHT22;22418;51.210;6.976;2024-01-10T14:36:18;2.30;99.80
36384;DHT22;22418;51.210;6.976;2024-01-10T14:38:48;2.20;99.80
36384;DHT22;22418;51.210;6.976;2024-01-10T14:41:19;2.30;99.90
36384;DHT22;22418;51.210;6.976;2024-01-10T14:43:49;2.30;99.90
36384;DHT22;22418;51.210;6.976;2024-01-10T14:46:20;2.30;99.90
36384;DHT22;22418;51.210;6.976;2024-01-10T14:48:51;2.20;99.90
36384;DHT22;22418;51.210;6.976;2024-01-10T14:51:21;2.00;99.90
36384;DHT22;22418;51.210;6.976;2024-01-10T14:53:52;2.00;99.90
36384;DHT22;22418;51.210;6.976;2024-01-10T14:56:23;1.80;99.90
36384;DHT22;22418;51.210;6.976;2024-01-10T14:58:53;1.60;99.90
36384;DHT22;22418;51.210;6.976;2024-01-10T15:01:24;1.50;99.90
36384;DHT22;22418;51.210;6.976;2024-01-10T15:03:54;1.30;99.90
36384;DHT22;22418;51.210;6.976;2024-01-10T15:06:25;1.40;99.90
36384;DHT22;22418;51.210;6.976;2024-01-10T15:08:56;1.50;99.90
36384;DHT22;22418;51.210;6.976;2024-01-10T15:11:26;1.50;99.90
36384;DHT22;22418;51.210;6.976;2024-01-10T15:13:57;1.40;99.90
36384;DHT22;22418;51.210;6.976;2024-01-10T15:16:27;1.20;99.90
36384;DHT22;22418;51.210;6.976;2024-01-10T15:18:58;1.30;99.90
36384;DHT22;22418;51.210;6.976;2024-01-10T15:21:28;1.30;99.90
36384;DHT22;22418;51.210;6.976;2024-01-10T15:23:59;1.30;99.90
36384;DHT22;22418;51.210;6.976;2024-01-10T15:26:30;1.20;99.90
36384;DHT22;22418;51.210;6.976;2024-01-10T15:29:00;1.00;99.90
36384;DHT22;22418;51.210;6.976;2024-01-10T15:31:31;1.00;99.90
36384;DHT22;22418;51.210;6.976;2024-01-10T15:34:02;0.90;99.90
36384;DHT22;22418;51.210;6.976;2024-01-10T15:36:33;0.70;99.90
36384;DHT22;22418;51.210;6.976;2024-01-10T15:39:03;0.80;99.90
36384;DHT22;22418;51.210;6.976;2024-01-10T15:41:35;0.80;99.90
36384;DHT22;22418;51.210;6.976;2024-01-10T15:44:05;0.80;99.90
36384;DHT22;22418;51.210;6.976;2024-01-10T15:46:39;0.90;99.90
36384;DHT22;22418;51.210;6.976;2024-01-10T15:49:13;0.90;99.90
36384;DHT22;22418;51.210;6.976;2024-01-10T15:51:44;1.10;99.90
36384;DHT22;22418;51.210;6.976;2024-01-10T15:54:15;0.90;99.90
36384;DHT22;22418;51.210;6.976;2024-01-10T15:56:45;1.00;99.90
36384;DHT22;22418;51.210;6.976;2024-01-10T15:59:16;0.90;99.90
36384;DHT22;22418;51.210;6.976;2024-01-10T16:01:47;0.70;99.90
36384;DHT22;22418;51.210;6.976;2024-01-10T16:04:17;0.70;99.90
36384;DHT22;22418;51.210;6.976;2024-01-10T16:06:48;0.70;99.90
36384;DHT22;22418;51.210;6.976;2024-01-10T16:09:19;0.80;99.90
36384;DHT22;22418;51.210;6.976;2024-01-10T16:11:49;0.80;99.90
36384;DHT22;22418;51.210;6.976;2024-01-10T16:14:20;0.90;99.90
36384;DHT22;22418;51.210;6.976;2024-01-10T16:16:50;0.90;99.90